Time;durP1;ratioP1;P1;durP2;ratioP2;P2;SDS_P1;SDS_P2;PMS_P1;PMS_P2;Temp;Humidity;BMP_temperature;BMP_pressure;BME280_temperature;BME280_humidity;BME280_pressure;Samples;Min_cycle;Max_cycle;Signal;HPM_P1;HPM_P2
2021/12/22 00:01:28;;;;;;;14.18;5.93;;;;;;;-6.36;91.32;95767.00;5094917;27;20043;-72
2021/12/22 00:03:55;;;;;;;21.15;8.10;;;;;;;-6.85;95.36;95750.00;5105772;28;20063;-73
2021/12/22 00:06:25;;;;;;;15.88;8.80;;;;;;;-7.34;100.00;95748.16;5108877;28;20043;-72
2021/12/22 00:08:53;;;;;;;11.70;6.30;;;;;;;-7.39;100.00;95750.16;5107188;28;20737;-72
2021/12/22 00:11:20;;;;;;;12.32;6.07;;;;;;;-7.34;100.00;95743.09;5110305;28;20043;-72
2021/12/22 00:13:47;;;;;;;9.95;5.47;;;;;;;-7.01;100.00;95760.31;5103637;28;20036;-72
2021/12/22 00:16:14;;;;;;;13.90;6.18;;;;;;;-6.98;100.00;95739.06;5090967;28;20050;-72
2021/12/22 00:18:41;;;;;;;10.13;6.05;;;;;;;-6.94;100.00;95753.94;5103648;28;20078;-72
2021/12/22 00:21:07;;;;;;;14.55;5.30;;;;;;;-7.00;100.00;95756.09;5106750;28;20485;-72
2021/12/22 00:23:34;;;;;;;13.85;7.18;;;;;;;-7.20;100.00;95755.66;5104982;28;20503;-72
2021/12/22 00:26:02;;;;;;;12.73;5.38;;;;;;;-7.06;100.00;95751.41;5111404;28;20047;-73
2021/12/22 00:28:29;;;;;;;13.50;7.78;;;;;;;-7.07;100.00;95759.94;5102944;28;20050;-72
2021/12/22 00:30:56;;;;;;;9.02;5.05;;;;;;;-7.17;100.00;95745.31;5090763;28;20043;-72
2021/12/22 00:33:23;;;;;;;15.05;7.82;;;;;;;-7.32;100.00;95761.50;5108818;28;20062;-72
2021/12/22 00:35:50;;;;;;;13.85;7.60;;;;;;;-7.17;100.00;95763.03;5110426;28;20046;-72
2021/12/22 00:38:19;;;;;;;17.77;8.82;;;;;;;-7.32;100.00;95764.03;5103979;28;20055;-72
2021/12/22 00:40:47;;;;;;;18.38;7.90;;;;;;;-7.16;100.00;95761.34;5106300;28;20073;-72
2021/12/22 00:43:15;;;;;;;14.20;8.93;;;;;;;-7.15;100.00;95753.66;5105174;28;20050;-73
2021/12/22 00:45:42;;;;;;;25.25;8.57;;;;;;;-6.91;100.00;95780.81;5105965;27;20505;-72
2021/12/22 00:48:10;;;;;;;18.38;7.82;;;;;;;-6.95;100.00;95780.22;5111252;27;20045;-72
2021/12/22 00:50:39;;;;;;;16.67;7.47;;;;;;;-7.37;100.00;95768.56;5112636;27;20501;-72
2021/12/22 00:53:06;;;;;;;12.48;5.82;;;;;;;-7.34;100.00;95763.34;5105664;27;20050;-72
2021/12/22 00:55:32;;;;;;;17.50;8.18;;;;;;;-7.09;100.00;95776.94;5114021;27;20046;-72
2021/12/22 00:57:59;;;;;;;12.60;7.57;;;;;;;-6.97;100.00;95776.97;5109499;27;20039;-73
2021/12/22 01:00:27;;;;;;;17.02;9.45;;;;;;;-6.89;100.00;95781.53;5106294;28;20120;-73
2021/12/22 01:02:54;;;;;;;18.13;8.70;;;;;;;-6.92;100.00;95766.53;5104117;27;20039;-72
2021/12/22 01:05:21;;;;;;;19.15;9.55;;;;;;;-6.80;100.00;95785.97;5107845;27;20067;-72
2021/12/22 01:07:49;;;;;;;15.05;8.48;;;;;;;-6.92;100.00;95784.25;5106553;28;20135;-73
2021/12/22 01:10:28;;;;;;;19.92;7.20;;;;;;;-7.18;100.00;95751.31;5107422;27;20103;-73
2021/12/22 01:12:58;;;;;;;17.52;8.25;;;;;;;-7.00;100.00;95766.22;5105665;28;20092;-73
2021/12/22 01:15:26;;;;;;;15.80;8.85;;;;;;;-7.03;100.00;95771.47;5108403;27;20035;-73
2021/12/22 01:18:04;;;;;;;15.75;7.45;;;;;;;-7.11;100.00;95739.88;5090283;27;20475;-72
2021/12/22 01:20:52;;;;;;;13.90;6.95;;;;;;;-6.95;100.00;95765.00;5108044;27;20039;-73
2021/12/22 01:23:21;;;;;;;17.83;7.07;;;;;;;-6.88;100.00;95750.19;5106183;28;20048;-73
2021/12/22 01:25:49;;;;;;;11.82;6.22;;;;;;;-6.93;100.00;95758.13;5105889;27;20051;-73
2021/12/22 01:28:23;;;;;;;15.40;7.72;;;;;;;-6.79;100.00;95758.91;5112415;27;20157;-73
2021/12/22 01:30:50;;;;;;;12.60;7.32;;;;;;;-6.67;100.00;95752.25;5105397;28;20046;-73
2021/12/22 01:33:17;;;;;;;11.40;6.45;;;;;;;-7.08;100.00;95732.97;5109798;27;20049;-73
2021/12/22 01:35:45;;;;;;;17.35;6.53;;;;;;;-7.21;100.00;95748.97;5105411;28;20105;-72
2021/12/22 01:38:12;;;;;;;11.48;6.40;;;;;;;-6.97;100.00;95745.75;5105593;28;20062;-73
2021/12/22 01:40:43;;;;;;;10.75;5.90;;;;;;;-6.92;100.00;95734.38;5105504;28;20044;-73
2021/12/22 01:43:13;;;;;;;10.55;5.20;;;;;;;-6.81;99.83;95741.28;5105860;28;20411;-72
2021/12/22 01:51:59;;;;;;;9.90;5.13;;;;;;;-6.69;97.69;95738.88;5104859;28;20062;-73
2021/12/22 01:54:39;;;;;;;13.25;6.10;;;;;;;-6.66;96.97;95739.47;5078907;28;20417;-73
2021/12/22 01:57:10;;;;;;;13.07;6.10;;;;;;;-6.70;96.83;95732.16;5106926;27;20035;-73
2021/12/22 01:59:42;;;;;;;9.18;6.28;;;;;;;-6.65;96.50;95735.22;5105604;28;20047;-73
2021/12/22 02:02:11;;;;;;;11.45;5.70;;;;;;;-6.65;95.98;95735.22;5103462;28;20050;-73
2021/12/22 02:04:38;;;;;;;10.15;4.68;;;;;;;-6.62;95.52;95735.00;5104251;27;20038;-72
2021/12/22 02:07:09;;;;;;;7.10;4.13;;;;;;;-6.61;94.39;95741.69;5108864;27;20044;-72
2021/12/22 02:12:06;;;;;;;10.45;5.03;;;;;;;-6.95;95.34;95719.41;5106367;27;20782;-73
2021/12/22 02:14:34;;;;;;;8.77;4.95;;;;;;;-6.83;94.97;95722.84;5107530;27;20039;-73
2021/12/22 02:17:07;;;;;;;12.00;5.93;;;;;;;-6.84;94.06;95736.44;5110378;27;20071;-73
2021/12/22 02:19:45;;;;;;;11.38;6.80;;;;;;;-6.98;93.43;95718.81;5092343;28;20504;-73
2021/12/22 02:22:15;;;;;;;10.68;4.70;;;;;;;-7.04;93.15;95709.06;5107274;27;20039;-72
2021/12/22 02:24:51;;;;;;;11.18;5.78;;;;;;;-6.95;93.41;95728.72;5105425;28;20111;-73
2021/12/22 02:27:28;;;;;;;15.25;7.97;;;;;;;-7.02;93.29;95732.56;5105736;27;20051;-73
2021/12/22 02:30:01;;;;;;;18.25;7.78;;;;;;;-6.99;93.55;95729.84;5104721;28;20047;-73
2021/12/22 02:33:05;;;;;;;9.32;5.43;;;;;;;-7.00;93.00;95725.72;5106262;28;20062;-73
2021/12/22 02:35:37;;;;;;;8.20;4.43;;;;;;;-7.08;93.29;95712.72;5106167;27;20036;-73
2021/12/22 02:38:12;;;;;;;11.27;6.90;;;;;;;-7.14;92.81;95709.69;5113151;27;20043;-73
2021/12/22 02:40:46;;;;;;;13.85;5.55;;;;;;;-7.15;92.83;95718.19;5104726;28;20058;-73
2021/12/22 02:43:19;;;;;;;11.07;6.15;;;;;;;-7.16;92.95;95721.63;5103749;28;20509;-73
2021/12/22 02:45:48;;;;;;;8.90;4.85;;;;;;;-7.23;93.18;95717.88;5106494;27;20031;-73
2021/12/22 02:48:15;;;;;;;12.35;5.93;;;;;;;-7.35;93.49;95699.22;5103323;28;20050;-74
2021/12/22 02:50:42;;;;;;;14.75;6.32;;;;;;;-7.31;93.95;95713.31;5104031;28;20417;-74
2021/12/22 02:53:13;;;;;;;13.57;5.20;;;;;;;-7.32;94.36;95715.94;5117078;27;20045;-73
2021/12/22 02:55:48;;;;;;;9.70;5.72;;;;;;;-7.29;94.15;95715.75;5102996;28;20046;-73
2021/12/22 02:58:29;;;;;;;10.95;7.45;;;;;;;-7.33;94.32;95709.25;5108394;27;20130;-73
2021/12/22 03:06:07;;;;;;;12.57;6.28;;;;;;;-7.42;95.00;95709.84;5103610;27;20112;-73
2021/12/22 03:08:34;;;;;;;14.50;5.97;;;;;;;-7.41;95.30;95721.59;5109859;27;20071;-73
2021/12/22 03:11:01;;;;;;;16.55;6.20;;;;;;;-7.44;95.88;95721.78;5104066;28;20047;-73
2021/12/22 03:13:30;;;;;;;15.45;7.57;;;;;;;-7.55;96.80;95715.69;5104208;27;20665;-73
2021/12/22 03:15:57;;;;;;;14.70;7.68;;;;;;;-7.48;97.31;95716.13;5109919;27;20038;-72
2021/12/22 03:18:24;;;;;;;9.32;5.75;;;;;;;-7.45;97.43;95722.69;5107726;27;20050;-72
2021/12/22 03:21:00;;;;;;;12.75;6.40;;;;;;;-7.45;96.97;95715.09;5089525;27;20053;-73
2021/12/22 03:23:27;;;;;;;8.75;6.13;;;;;;;-7.45;96.06;95715.09;5105942;27;20036;-73
2021/12/22 03:25:54;;;;;;;7.93;4.70;;;;;;;-7.44;95.50;95724.31;5103721;28;20402;-73
2021/12/22 03:28:21;;;;;;;11.88;6.68;;;;;;;-7.58;94.81;95725.19;5103699;28;20452;-72
2021/12/22 03:30:48;;;;;;;13.15;6.43;;;;;;;-7.58;94.35;95720.97;5087307;27;20042;-72
2021/12/22 03:33:15;;;;;;;16.40;5.97;;;;;;;-7.58;93.60;95726.03;5105678;27;20122;-72
2021/12/22 03:35:42;;;;;;;10.35;5.78;;;;;;;-7.63;93.21;95722.97;5104880;27;20031;-72
2021/12/22 03:38:09;;;;;;;7.78;4.60;;;;;;;-7.61;93.59;95721.16;5110278;27;20039;-72
2021/12/22 03:40:36;;;;;;;10.20;4.70;;;;;;;-7.74;93.69;95702.59;5105423;27;20043;-73
2021/12/22 03:43:02;;;;;;;8.70;5.05;;;;;;;-7.79;93.66;95713.00;5109596;27;20040;-72
2021/12/22 03:45:29;;;;;;;12.60;6.85;;;;;;;-7.77;93.14;95720.50;5106437;28;20436;-72
2021/12/22 03:47:56;;;;;;;15.32;6.18;;;;;;;-7.80;93.18;95726.56;5107319;27;20444;-73
2021/12/22 03:50:24;;;;;;;12.32;6.60;;;;;;;-7.93;93.00;95711.34;5102826;28;20110;-72
2021/12/22 03:52:51;;;;;;;10.50;5.93;;;;;;;-7.86;92.92;95721.09;5102626;28;20047;-72
2021/12/22 03:55:18;;;;;;;8.95;5.10;;;;;;;-7.84;92.82;95734.44;5108988;27;20046;-73
2021/12/22 03:57:45;;;;;;;10.18;7.30;;;;;;;-7.90;92.99;95731.38;5106277;27;20051;-72
2021/12/22 04:00:13;;;;;;;17.02;6.32;;;;;;;-8.07;93.29;95724.03;5114113;27;20057;-73
2021/12/22 04:02:40;;;;;;;13.35;7.50;;;;;;;-8.02;93.39;95747.31;5089773;28;20471;-73
2021/12/22 04:05:08;;;;;;;16.35;8.32;;;;;;;-8.13;93.40;95734.53;5102558;28;20040;-71
2021/12/22 04:07:35;;;;;;;12.75;6.90;;;;;;;-8.02;93.45;95747.31;5092856;28;20047;-72
2021/12/22 04:10:19;;;;;;;17.58;7.70;;;;;;;-8.05;93.76;95750.03;5106706;28;20049;-73
2021/12/22 04:12:47;;;;;;;9.52;6.32;;;;;;;-8.02;93.89;95747.31;5111424;28;20049;-73
2021/12/22 04:15:14;;;;;;;13.02;8.63;;;;;;;-8.04;94.18;95754.19;5113247;28;20045;-71
2021/12/22 04:17:41;;;;;;;16.38;5.95;;;;;;;-8.03;94.23;95750.75;5104040;28;20044;-73
2021/12/22 04:20:09;;;;;;;21.80;9.23;;;;;;;-8.11;94.28;95747.88;5116810;28;20035;-73
2021/12/22 04:22:37;;;;;;;17.92;8.02;;;;;;;-8.09;94.29;95751.94;5108932;27;20497;-73
2021/12/22 04:25:07;;;;;;;12.45;7.45;;;;;;;-8.28;97.36;95746.41;5109774;27;20778;-72
2021/12/22 04:27:36;;;;;;;15.05;8.82;;;;;;;-8.23;97.65;95748.63;5108158;27;20048;-73
2021/12/22 04:30:05;;;;;;;10.20;6.45;;;;;;;-8.24;97.75;95741.97;5092273;28;20044;-73
2021/12/22 04:32:32;;;;;;;12.52;7.13;;;;;;;-8.27;97.47;95733.63;5106222;27;20455;-71
2021/12/22 04:34:58;;;;;;;10.63;7.25;;;;;;;-8.15;96.68;95751.50;5109524;27;20032;-73
2021/12/22 04:37:25;;;;;;;13.60;5.65;;;;;;;-8.55;99.51;95728.66;5106859;27;20110;-72
2021/12/22 04:39:52;;;;;;;11.75;6.20;;;;;;;-8.43;99.87;95753.19;5116437;27;20557;-73
2021/12/22 04:42:19;;;;;;;7.95;4.65;;;;;;;-8.43;99.50;95763.28;5117622;27;20040;-72
2021/12/22 04:44:46;;;;;;;12.60;5.97;;;;;;;-8.55;98.83;95738.75;5088498;28;20054;-74
2021/12/22 04:47:13;;;;;;;7.60;4.82;;;;;;;-8.40;98.35;95763.09;5110987;27;20035;-73
2021/12/22 04:49:40;;;;;;;10.13;5.47;;;;;;;-8.40;98.02;95752.97;5108028;27;20463;-73
2021/12/22 04:52:09;;;;;;;10.55;5.63;;;;;;;-8.34;97.44;95755.13;5107079;28;20135;-73
2021/12/22 04:54:48;;;;;;;15.40;7.25;;;;;;;-8.38;96.94;95751.16;5108666;27;20118;-72
2021/12/22 04:57:15;;;;;;;12.13;6.68;;;;;;;-8.39;96.40;95754.63;5107738;27;20449;-72
2021/12/22 04:59:42;;;;;;;16.95;8.05;;;;;;;-8.44;96.45;95749.06;5118543;27;20059;-73
2021/12/22 05:02:09;;;;;;;16.77;9.48;;;;;;;-8.44;96.06;95746.53;5106616;28;20071;-72
2021/12/22 05:04:37;;;;;;;16.30;8.90;;;;;;;-8.58;95.74;95733.91;5112988;27;20036;-73
2021/12/22 05:07:04;;;;;;;15.05;9.00;;;;;;;-8.42;95.61;95759.88;5105783;27;20044;-73
2021/12/22 05:09:31;;;;;;;13.38;6.75;;;;;;;-8.32;95.30;95765.97;5092114;27;20052;-73
2021/12/22 05:11:58;;;;;;;14.27;7.60;;;;;;;-8.29;95.09;95765.78;5110438;27;20039;-73
2021/12/22 05:14:25;;;;;;;23.10;9.95;;;;;;;-8.27;94.97;95774.06;5108277;27;20077;-72
2021/12/22 05:16:58;;;;;;;14.45;7.57;;;;;;;-8.39;95.08;95749.56;5114641;27;20504;-71
2021/12/22 05:19:26;;;;;;;12.33;5.73;;;;;;;-8.52;94.75;95746.97;5113252;27;20050;-73
2021/12/22 05:21:53;;;;;;;20.13;6.53;;;;;;;-8.34;94.68;95777.88;5113221;27;20457;-73
2021/12/22 05:24:21;;;;;;;13.77;7.05;;;;;;;-8.31;94.36;95777.69;5109389;27;20122;-73
2021/12/22 05:26:48;;;;;;;14.45;8.50;;;;;;;-8.33;94.29;95769.41;5107325;27;20123;-73
2021/12/22 05:29:16;;;;;;;9.40;5.07;;;;;;;-8.20;94.03;95778.78;5115759;27;20046;-73
2021/12/22 05:31:43;;;;;;;15.38;7.10;;;;;;;-8.30;93.73;95768.38;5094142;28;20051;-73
2021/12/22 05:34:10;;;;;;;10.05;5.60;;;;;;;-8.23;93.84;95778.94;5112251;27;20093;-73
2021/12/22 05:36:37;;;;;;;8.80;4.57;;;;;;;-8.21;93.63;95787.25;5113408;27;20117;-72
2021/12/22 05:39:04;;;;;;;10.82;5.93;;;;;;;-8.27;93.32;95781.66;5120857;27;20123;-73
2021/12/22 05:41:31;;;;;;;11.15;6.32;;;;;;;-8.33;93.03;95789.63;5113410;27;20070;-74
2021/12/22 05:43:57;;;;;;;17.83;6.82;;;;;;;-8.47;92.94;95780.34;5105194;27;20044;-73
2021/12/22 05:46:24;;;;;;;8.40;5.63;;;;;;;-8.43;92.81;95788.56;5107916;27;20413;-74
2021/12/22 05:48:53;;;;;;;16.27;6.47;;;;;;;-8.41;92.93;95796.81;5105466;28;20055;-73
2021/12/22 05:51:21;;;;;;;7.60;4.53;;;;;;;-8.46;93.00;95774.41;5116143;27;20060;-73
2021/12/22 05:53:49;;;;;;;6.22;3.92;;;;;;;-8.42;93.09;95790.19;5109761;27;20044;-73
2021/12/22 05:56:15;;;;;;;9.90;4.72;;;;;;;-8.45;93.28;95795.44;5092675;27;20063;-73
2021/12/22 05:58:42;;;;;;;14.88;6.05;;;;;;;-8.54;93.36;95790.91;5112504;27;20619;-73
2021/12/22 06:01:09;;;;;;;12.57;6.50;;;;;;;-8.71;93.44;95780.09;5107316;27;20147;-73
2021/12/22 06:03:37;;;;;;;9.73;5.75;;;;;;;-8.67;93.52;95796.69;5105210;27;20044;-74
2021/12/22 06:06:03;;;;;;;10.98;5.78;;;;;;;-8.78;93.91;95783.88;5106848;27;20042;-73
2021/12/22 06:08:30;;;;;;;13.45;6.57;;;;;;;-8.69;94.17;95798.50;5108835;27;20047;-74
2021/12/22 06:10:57;;;;;;;13.13;6.82;;;;;;;-8.80;94.36;95785.69;5104569;28;20047;-73
2021/12/22 06:13:24;;;;;;;18.83;10.27;;;;;;;-8.82;94.65;95787.50;5108513;27;20043;-73
2021/12/22 06:15:51;;;;;;;23.25;12.20;;;;;;;-8.82;94.76;95787.50;5112907;27;20122;-73
2021/12/22 06:18:18;;;;;;;15.25;7.88;;;;;;;-8.82;95.09;95787.50;5104819;28;20035;-73
2021/12/22 06:20:45;;;;;;;11.48;5.90;;;;;;;-8.78;94.96;95791.44;5106698;27;20073;-73
2021/12/22 06:23:12;;;;;;;10.75;5.85;;;;;;;-8.69;95.06;95798.50;5108596;27;20452;-73
2021/12/22 06:25:39;;;;;;;13.07;5.07;;;;;;;-8.69;95.07;95802.75;5110327;27;20035;-74
2021/12/22 06:28:06;;;;;;;7.85;4.80;;;;;;;-8.61;95.15;95814.91;5113151;27;20049;-74
2021/12/22 06:30:33;;;;;;;25.52;10.00;;;;;;;-8.63;95.43;95804.91;5111231;27;20122;-74
2021/12/22 06:33:00;;;;;;;22.23;9.30;;;;;;;-8.59;95.65;95813.09;5114925;27;20045;-73
2021/12/22 06:35:27;;;;;;;18.45;7.50;;;;;;;-8.48;96.20;95810.75;5109625;27;20116;-73
2021/12/22 06:37:54;;;;;;;12.05;6.57;;;;;;;-8.46;96.66;95798.88;5113122;27;20853;-73
2021/12/22 06:40:21;;;;;;;23.30;13.13;;;;;;;-8.52;97.49;95799.22;5104491;27;20043;-73
2021/12/22 06:42:48;;;;;;;19.35;12.07;;;;;;;-8.52;97.32;95799.22;5091581;27;21955;-73
2021/12/22 06:45:15;;;;;;;17.45;9.65;;;;;;;-8.44;97.55;95811.38;5098581;27;20043;-73
2021/12/22 06:47:42;;;;;;;14.75;7.38;;;;;;;-8.52;97.78;95800.03;5109014;27;20489;-73
2021/12/22 06:50:10;;;;;;;16.10;7.70;;;;;;;-8.34;98.35;95825.88;5110862;27;20443;-73
2021/12/22 06:52:37;;;;;;;16.33;8.15;;;;;;;-8.24;99.53;95822.84;5104183;27;20051;-73
2021/12/22 06:55:04;;;;;;;8.27;5.15;;;;;;;-8.16;99.38;95826.50;5093268;28;20040;-73
2021/12/22 06:57:33;;;;;;;20.08;7.53;;;;;;;-8.24;99.47;95807.69;5107375;27;20155;-73
2021/12/22 07:00:02;;;;;;;15.55;9.43;;;;;;;-8.02;100.00;95823.16;5092413;28;20118;-73
2021/12/22 07:02:32;;;;;;;25.48;13.27;;;;;;;-7.88;100.00;95830.72;5108310;27;20098;-74
2021/12/22 07:04:59;;;;;;;16.13;10.95;;;;;;;-7.77;100.00;95822.50;5105281;27;20539;-73
2021/12/22 07:07:26;;;;;;;20.63;9.48;;;;;;;-7.60;100.00;95830.75;5105835;27;20067;-74
2021/12/22 07:09:53;;;;;;;21.15;9.15;;;;;;;-7.50;100.00;95830.09;5104340;28;20045;-74
2021/12/22 07:12:20;;;;;;;17.63;8.02;;;;;;;-7.42;100.00;95811.09;5105266;28;20051;-73
2021/12/22 07:14:46;;;;;;;14.25;8.10;;;;;;;-7.26;100.00;95811.72;5108770;27;20043;-74
2021/12/22 07:17:13;;;;;;;14.63;8.55;;;;;;;-6.99;100.00;95823.53;5107203;27;20042;-74
2021/12/22 07:19:40;;;;;;;18.92;9.05;;;;;;;-6.79;100.00;95820.56;5086520;28;20045;-74
2021/12/22 07:22:07;;;;;;;17.33;9.73;;;;;;;-6.56;100.00;95824.09;5111906;27;20039;-74
2021/12/22 07:24:35;;;;;;;21.60;10.75;;;;;;;-6.45;100.00;95818.31;5088405;28;20130;-74
2021/12/22 07:27:02;;;;;;;23.15;11.40;;;;;;;-6.27;100.00;95818.81;5096821;27;20791;-73
2021/12/22 07:29:29;;;;;;;24.88;14.98;;;;;;;-6.37;100.00;95795.81;5102703;28;20416;-74
2021/12/22 07:31:56;;;;;;;21.88;10.43;;;;;;;-6.27;100.00;95800.25;5108016;27;20047;-74
2021/12/22 07:34:38;;;;;;;29.98;10.77;;;;;;;-6.06;100.00;95814.00;5110910;27;20050;-74
2021/12/22 07:37:22;;;;;;;19.48;9.60;;;;;;;-6.01;100.00;95811.97;5105995;27;20427;-74
2021/12/22 07:39:49;;;;;;;20.90;10.05;;;;;;;-6.10;100.00;95792.31;5109342;27;20582;-74
2021/12/22 07:42:16;;;;;;;22.40;8.05;;;;;;;-5.99;100.00;95815.22;5107488;27;20043;-74
2021/12/22 07:44:43;;;;;;;20.23;9.55;;;;;;;-5.89;99.86;95822.16;5103053;27;20404;-74
2021/12/22 07:47:10;;;;;;;23.95;12.68;;;;;;;-5.91;100.00;95816.38;5104960;27;20378;-74
2021/12/22 07:49:37;;;;;;;25.52;8.57;;;;;;;-5.71;99.56;95827.69;5101112;28;20065;-74
2021/12/22 07:52:04;;;;;;;15.00;9.35;;;;;;;-5.68;99.02;95824.97;5101385;27;20570;-74
2021/12/22 07:54:31;;;;;;;20.98;11.30;;;;;;;-5.72;98.69;95831.97;5102171;28;20441;-74
2021/12/22 07:56:59;;;;;;;28.98;12.98;;;;;;;-5.55;99.33;95832.53;5101238;28;20184;-74
2021/12/22 07:59:26;;;;;;;22.23;10.30;;;;;;;-5.54;99.04;95834.16;5105935;27;20536;-74
2021/12/22 08:01:53;;;;;;;23.30;11.13;;;;;;;-5.38;99.49;95829.63;5104405;27;20402;-74
2021/12/22 08:04:21;;;;;;;16.30;9.35;;;;;;;-5.34;98.29;95820.06;5104602;28;20104;-73
2021/12/22 08:06:48;;;;;;;23.08;13.10;;;;;;;-5.15;98.30;95829.72;5107274;27;20540;-74
2021/12/22 08:09:15;;;;;;;28.00;12.32;;;;;;;-5.09;98.42;95811.50;5106884;27;20131;-75
2021/12/22 08:11:42;;;;;;;32.17;15.25;;;;;;;-4.95;97.71;95816.41;5107273;28;20048;-73
2021/12/22 08:14:09;;;;;;;23.27;12.57;;;;;;;-4.82;97.09;95824.75;5108472;28;20040;-73
2021/12/22 08:16:36;;;;;;;19.75;9.93;;;;;;;-4.72;94.55;95822.34;5089868;28;20119;-73
2021/12/22 08:19:03;;;;;;;23.65;12.27;;;;;;;-4.52;93.53;95837.84;5112320;28;20040;-73
2021/12/22 08:21:30;;;;;;;23.42;11.32;;;;;;;-4.46;90.45;95839.97;5110235;28;20101;-72
2021/12/22 08:23:57;;;;;;;21.50;10.57;;;;;;;-4.50;90.28;95831.75;5104053;28;20039;-73
2021/12/22 08:26:24;;;;;;;38.92;11.60;;;;;;;-4.25;91.27;95852.81;5109267;28;20071;-72
2021/12/22 08:28:51;;;;;;;27.50;14.07;;;;;;;-4.14;91.42;95842.66;5105473;28;20054;-72
2021/12/22 08:31:18;;;;;;;24.15;13.07;;;;;;;-3.91;91.85;95837.56;5085507;28;20051;-73
2021/12/22 08:33:46;;;;;;;25.75;12.10;;;;;;;-3.74;90.53;95844.72;5102646;28;20126;-74
2021/12/22 08:39:04;;;;;;;30.65;12.18;;;;;;;-3.52;88.67;95837.97;5105899;28;20138;-75
2021/12/22 08:41:35;;;;;;;26.63;10.60;;;;;;;-3.42;87.32;95843.97;5105485;28;20198;-75
2021/12/22 08:44:08;;;;;;;17.15;8.35;;;;;;;-3.16;88.21;95848.75;5104768;28;20070;-74
2021/12/22 08:46:38;;;;;;;28.80;12.15;;;;;;;-2.95;88.80;95852.16;5103718;28;20040;-74
2021/12/22 08:49:06;;;;;;;37.90;16.33;;;;;;;-2.85;87.66;95851.44;5091472;28;20050;-76
2021/12/22 08:51:34;;;;;;;28.20;13.43;;;;;;;-2.79;86.91;95835.63;5113403;28;20051;-75
2021/12/22 08:54:02;;;;;;;20.60;11.82;;;;;;;-2.87;86.68;95823.50;5115917;28;20035;-75
2021/12/22 08:56:31;;;;;;;28.58;11.45;;;;;;;-2.50;88.88;95841.72;5114275;28;20035;-77
2021/12/22 08:58:58;;;;;;;24.92;10.15;;;;;;;-2.55;83.87;95833.66;5120832;28;20039;-77
2021/12/22 09:01:26;;;;;;;26.15;11.10;;;;;;;-2.49;86.12;95837.44;5126163;28;20048;-77
2021/12/22 09:03:54;;;;;;;34.35;11.50;;;;;;;-2.36;86.13;95827.03;5127116;28;20464;-76
2021/12/22 09:06:22;;;;;;;32.97;12.52;;;;;;;-2.45;84.29;95832.88;5126877;27;20036;-76
2021/12/22 09:08:50;;;;;;;23.15;11.30;;;;;;;-2.46;84.86;95831.28;5130676;27;20142;-76
2021/12/22 09:11:17;;;;;;;24.00;11.55;;;;;;;-2.30;83.00;95826.53;5129536;27;20123;-76
2021/12/22 09:13:44;;;;;;;59.58;22.15;;;;;;;-1.98;83.55;95830.69;5122440;27;20031;-77
2021/12/22 09:16:12;;;;;;;27.00;13.48;;;;;;;-1.80;83.22;95836.00;5108170;27;20036;-77
2021/12/22 09:18:40;;;;;;;22.27;11.93;;;;;;;-1.69;82.20;95845.31;5120888;27;20039;-77
2021/12/22 09:21:08;;;;;;;32.35;14.27;;;;;;;-1.55;82.06;95834.72;5121003;27;20040;-76
2021/12/22 09:23:35;;;;;;;29.45;12.05;;;;;;;-1.38;80.77;95836.66;5120361;27;20439;-77
2021/12/22 09:26:03;;;;;;;27.35;11.77;;;;;;;-1.25;78.99;95833.03;5119566;27;20295;-77
2021/12/22 09:28:30;;;;;;;27.02;9.02;;;;;;;-1.03;76.17;95837.88;5110526;27;20079;-75
2021/12/22 09:30:58;;;;;;;28.73;11.18;;;;;;;-0.54;86.11;95826.81;5107245;27;20049;-76
2021/12/22 09:33:25;;;;;;;28.50;13.45;;;;;;;-0.20;77.34;95829.72;5110257;27;20114;-76
2021/12/22 09:35:53;;;;;;;18.67;9.95;;;;;;;-0.23;74.75;95825.69;5117792;27;20054;-76
2021/12/22 09:38:20;;;;;;;20.15;10.85;;;;;;;-0.13;74.35;95827.41;5114996;27;20041;-78
2021/12/22 09:40:47;;;;;;;21.90;12.25;;;;;;;0.24;75.07;95836.84;5122058;27;20404;-77
2021/12/22 09:43:15;;;;;;;17.75;8.32;;;;;;;0.47;71.44;95832.94;5122368;27;20040;-78
2021/12/22 09:45:46;;;;;;;16.67;9.15;;;;;;;0.65;69.62;95824.47;5117895;27;20747;-78
2021/12/22 09:52:15;;;;;;;22.42;8.98;;;;;;;0.97;69.27;95818.03;5118687;27;20092;-80
2021/12/22 09:53:49;;;;;;;16.52;8.57;;;;;;;0.93;68.63;95818.34;5112702;27;20097;-77
2021/12/22 09:56:23;;;;;;;36.10;13.43;;;;;;;0.72;68.21;95826.31;5108982;27;20050;-77
2021/12/22 09:58:51;;;;;;;29.23;12.00;;;;;;;0.83;69.58;95809.94;5098752;27;20059;-77
2021/12/22 10:01:23;;;;;;;34.92;12.98;;;;;;;1.05;68.04;95820.69;5115518;27;20046;-78
2021/12/22 10:03:52;;;;;;;75.47;22.40;;;;;;;0.45;67.14;95742.59;5115931;27;20059;-78
2021/12/22 10:06:19;;;;;;;27.27;12.60;;;;;;;0.93;67.38;95818.34;5115204;27;20815;-77
2021/12/22 10:08:53;;;;;;;100.60;26.67;;;;;;;0.69;67.76;95820.69;5111882;27;20447;-77
2021/12/22 10:11:20;;;;;;;31.38;13.40;;;;;;;0.24;66.39;95806.09;5116530;27;20507;-75
2021/12/22 10:13:47;;;;;;;48.85;17.55;;;;;;;-0.02;66.83;95787.06;5113715;27;20043;-76
2021/12/22 10:16:24;;;;;;;37.95;14.10;;;;;;;-0.26;68.91;95790.09;5094261;27;20036;-76
2021/12/22 10:19:07;;;;;;;19.88;9.77;;;;;;;0.03;68.89;95814.00;5113625;27;20042;-77
2021/12/22 10:21:49;;;;;;;32.17;10.85;;;;;;;0.05;70.13;95801.88;5114187;27;20109;-77
2021/12/22 10:24:16;;;;;;;22.17;10.95;;;;;;;0.10;70.19;95800.47;5106651;27;20044;-76
2021/12/22 10:26:43;;;;;;;21.20;9.27;;;;;;;0.15;71.28;95813.69;5113159;27;20123;-77
2021/12/22 10:29:10;;;;;;;49.67;16.95;;;;;;;0.23;70.67;95799.34;5109748;27;20042;-75
2021/12/22 10:31:45;;;;;;;81.80;26.45;;;;;;;0.46;69.71;95805.69;5103410;27;20059;-76
2021/12/22 10:34:17;;;;;;;37.70;16.88;;;;;;;0.35;70.25;95803.34;5102667;27;20065;-75
2021/12/22 10:36:50;;;;;;;27.13;13.00;;;;;;;0.52;69.50;95783.81;5103233;27;20126;-75
2021/12/22 10:39:21;;;;;;;25.20;10.85;;;;;;;0.70;70.46;95791.50;5104915;27;20497;-76
2021/12/22 10:41:49;;;;;;;23.08;11.52;;;;;;;0.71;68.09;95782.88;5103313;27;20542;-74
2021/12/22 10:44:18;;;;;;;22.77;10.43;;;;;;;0.65;68.01;95774.00;5108400;27;20042;-76
2021/12/22 10:46:46;;;;;;;27.88;14.02;;;;;;;0.93;69.11;95786.75;5106409;27;20665;-76
2021/12/22 10:49:22;;;;;;;16.88;9.77;;;;;;;0.99;67.74;95775.09;5098200;27;20074;-75
2021/12/22 10:52:01;;;;;;;25.40;10.82;;;;;;;1.04;68.63;95783.94;5099499;27;20055;-76
2021/12/22 10:54:38;;;;;;;31.45;13.75;;;;;;;1.06;67.92;95786.38;5101396;27;20040;-76
2021/12/22 10:57:10;;;;;;;24.05;11.88;;;;;;;0.67;68.74;95791.81;5106880;27;20122;-76
2021/12/22 10:59:45;;;;;;;19.30;10.13;;;;;;;0.40;70.70;95775.53;5100510;27;20406;-75
2021/12/22 11:02:25;;;;;;;24.50;10.85;;;;;;;0.42;70.33;95778.75;5103018;27;20082;-76
2021/12/22 11:04:53;;;;;;;20.55;10.40;;;;;;;0.43;70.13;95779.53;5103073;27;20746;-76
2021/12/22 11:07:28;;;;;;;20.45;10.30;;;;;;;0.53;69.61;95764.91;5099983;27;20043;-76
2021/12/22 11:09:55;;;;;;;19.95;10.32;;;;;;;0.15;71.60;95757.31;5102640;27;20036;-76
2021/12/22 11:12:36;;;;;;;28.10;13.77;;;;;;;0.24;70.21;95754.84;5101188;27;20048;-75
2021/12/22 11:15:04;;;;;;;30.42;14.20;;;;;;;0.43;70.41;95759.03;5082843;28;20054;-77
2021/12/22 11:17:31;;;;;;;23.38;12.85;;;;;;;0.50;70.00;95745.50;5110063;27;20070;-76
2021/12/22 11:20:04;;;;;;;21.98;10.80;;;;;;;0.66;70.88;95752.53;5108776;27;20040;-76
2021/12/22 11:25:22;;;;;;;20.90;10.68;;;;;;;0.78;71.17;95750.56;5087796;27;20508;-76
2021/12/22 11:27:50;;;;;;;30.35;14.32;;;;;;;0.92;68.22;95729.53;5103846;27;20054;-76
2021/12/22 11:30:18;;;;;;;26.13;11.57;;;;;;;1.03;67.20;95745.66;5105684;27;20042;-76
2021/12/22 11:32:46;;;;;;;25.30;14.00;;;;;;;0.86;67.44;95730.09;5107595;27;20469;-77
2021/12/22 11:35:15;;;;;;;22.73;11.73;;;;;;;0.95;67.47;95734.38;5101336;27;20039;-76
2021/12/22 11:37:43;;;;;;;24.55;11.25;;;;;;;0.91;68.00;95733.03;5105839;27;20067;-77
2021/12/22 11:40:13;;;;;;;28.73;9.80;;;;;;;0.93;68.71;95722.63;5098026;27;20122;-76
2021/12/22 11:42:40;;;;;;;26.02;10.82;;;;;;;1.02;68.48;95713.22;5101175;27;20069;-76
2021/12/22 11:45:23;;;;;;;22.92;10.35;;;;;;;1.27;67.53;95732.97;5112138;27;20042;-77
2021/12/22 11:47:53;;;;;;;21.65;8.60;;;;;;;1.17;66.48;95734.84;5111450;27;20039;-77
2021/12/22 11:50:29;;;;;;;12.70;7.18;;;;;;;1.13;67.03;95725.81;5110377;27;20075;-77
2021/12/22 11:52:58;;;;;;;17.08;8.43;;;;;;;0.81;64.24;95734.91;5113112;27;20055;-78
2021/12/22 11:55:42;;;;;;;15.02;7.55;;;;;;;0.43;65.14;95718.81;5111864;27;20040;-76